Terminal Aerodrome Forecast
Issued by NWS Charleston, WV

Current Version | Previous Version | Graphics & Text | Print | Product List | Glossary On
Versions: 1 2 3 4 5 6 7 8 9 10 11 12 13 14 15 16 17 18 19 20 21 22 23 24 25 26
000
FTUS41 KRLX 252333
TAFEKN
TAF
KEKN 252333Z 2600/2624 26005KT P6SM SHRA BKN019
     FM260300 27007KT 4SM SHRA BKN013
     FM260600 27007KT 4SM SHRA OVC009
     FM260800 27010G16KT 4SM SHRA BKN007
     FM261300 27011G18KT P6SM SHRA BKN010
     FM261700 28012G19KT P6SM SCT011=

USA.gov is the U.S. government's official web portal to all federal, state and local government web resources and services.